VTSE/CJM METAR and TAF weather

Enter ICAO airport designator
Station Type Date Time Source
VTSE METAR 2023/01/30 10:00 UTC NOAA

VTSE 301000Z 05008G18KT 290V080 9000 NSC 26/16 Q1010 NOSIG


Station Type Date Time Source
VTSE Decoded METAR 2023/01/30 10:00 UTC NOAA

Station name not available
Jan 30, 2023 - 05:00 AM EST / 2023.01.30 1000 UTC
Wind: from the NE (050 degrees) at 9 MPH (8 KT) gusting to 21 MPH (18 KT) (direction variable):0
Visibility: 5 mile(s):0
Temperature: 78 F (26 C)
Dew Point: 60 F (16 C)
Relative Humidity: 54%
Pressure (altimeter): 29.83 in. Hg (1010 hPa)
ob: VTSE 301000Z 05008G18KT 290V080 9000 NSC 26/16 Q1010 NOSIG
cycle: 10

Station Type Date Time Source
VTSE TAF 2023/01/30 06:00 UTC NOAA

TAF VTSE 300500Z 3006/3106 04013KT 9999 FEW020
TEMPO 3006/3012 04015G25KT
BECMG 3016/3018 04003KT
BECMG 3102/3104 04013KT

Example: see airport list